Time;durP1;ratioP1;P1;durP2;ratioP2;P2;SDS_P1;SDS_P2;PMS_P1;PMS_P2;Temp;Humidity;BMP_temperature;BMP_pressure;BME280_temperature;BME280_humidity;BME280_pressure;Samples;Min_cycle;Max_cycle;Signal;HPM_P1;HPM_P2
2023/07/17 04:06:28;;;;;;;2.20;1.73;;;17.50;99.90;;;;;;5060947;23;20535;-67
2023/07/17 04:08:53;;;;;;;2.17;2.03;;;17.50;99.90;;;;;;4995318;28;20512;-67
2023/07/17 04:11:19;;;;;;;2.63;2.43;;;17.60;99.90;;;;;;4995681;28;20172;-67
2023/07/17 04:13:45;;;;;;;2.40;2.20;;;17.60;99.90;;;;;;4995437;28;20193;-66
2023/07/17 04:16:13;;;;;;;2.17;1.97;;;17.60;99.90;;;;;;4978259;28;20926;-67
2023/07/17 04:18:38;;;;;;;2.37;2.17;;;17.60;99.90;;;;;;4975150;28;20532;-66
2023/07/17 04:21:04;;;;;;;2.40;2.20;;;17.60;99.90;;;;;;4975670;28;20389;-67
2023/07/17 04:23:30;;;;;;;1.53;1.43;;;17.60;99.90;;;;;;4975865;28;20261;-67
2023/07/17 04:25:55;;;;;;;3.03;2.20;;;17.60;99.90;;;;;;4975911;28;20662;-67
2023/07/17 04:28:24;;;;;;;1.70;1.60;;;17.60;99.90;;;;;;4976030;28;20174;-67
2023/07/17 04:30:49;;;;;;;3.17;2.87;;;17.60;99.90;;;;;;4958593;28;20276;-66
2023/07/17 04:33:15;;;;;;;2.23;2.03;;;17.70;99.90;;;;;;4974866;28;20468;-66
2023/07/17 04:35:40;;;;;;;1.83;1.73;;;17.80;99.90;;;;;;4957326;28;20203;-66
2023/07/17 04:38:06;;;;;;;2.80;2.47;;;18.00;99.90;;;;;;4975890;28;20581;-66
2023/07/17 04:40:32;;;;;;;2.53;1.87;;;18.30;99.90;;;;;;4958362;28;20246;-67
2023/07/17 04:43:00;;;;;;;2.23;1.97;;;18.60;99.90;;;;;;4975695;28;20204;-67
2023/07/17 04:45:26;;;;;;;1.97;1.87;;;18.90;99.90;;;;;;4975411;28;20551;-67
2023/07/17 04:47:52;;;;;;;2.13;1.67;;;19.10;99.90;;;;;;4975735;28;20907;-66
2023/07/17 04:50:17;;;;;;;1.70;1.60;;;19.20;99.90;;;;;;4975601;28;20420;-67
2023/07/17 04:52:43;;;;;;;2.20;1.53;;;19.20;99.90;;;;;;4975451;28;20490;-66
2023/07/17 04:55:09;;;;;;;1.73;1.63;;;19.20;99.90;;;;;;4975111;28;20200;-67
2023/07/17 04:57:34;;;;;;;1.10;1.00;;;19.20;99.90;;;;;;4975503;28;20500;-67
2023/07/17 05:00:00;;;;;;;1.43;1.33;;;19.20;99.90;;;;;;4975206;28;20211;-65
2023/07/17 05:02:26;;;;;;;2.20;2.00;;;19.30;99.90;;;;;;4958095;28;20212;-68
2023/07/17 05:04:51;;;;;;;1.60;1.50;;;19.30;99.90;;;;;;4974912;28;20825;-65
2023/07/17 05:07:17;;;;;;;3.70;1.50;;;19.30;99.90;;;;;;4975093;28;20705;-68
2023/07/17 05:09:43;;;;;;;1.97;1.87;;;19.40;99.90;;;;;;4974461;28;20267;-71
2023/07/17 05:12:09;;;;;;;1.27;1.27;;;19.50;99.90;;;;;;4974921;28;20242;-75
2023/07/17 05:14:34;;;;;;;1.23;1.13;;;19.60;99.90;;;;;;4973928;28;20489;-72
2023/07/17 05:17:00;;;;;;;2.17;1.43;;;19.70;99.90;;;;;;4984531;28;20515;-70
2023/07/17 05:19:25;;;;;;;1.50;1.40;;;19.80;99.90;;;;;;4966429;28;20180;-72
2023/07/17 05:21:51;;;;;;;1.83;1.73;;;20.10;99.90;;;;;;4974729;28;20173;-71
2023/07/17 05:24:17;;;;;;;1.67;1.57;;;20.30;99.90;;;;;;4974171;28;20231;-72
2023/07/17 05:26:42;;;;;;;1.33;1.23;;;20.40;99.90;;;;;;4974919;28;20195;-73
2023/07/17 05:29:08;;;;;;;1.70;1.60;;;20.50;99.90;;;;;;4974879;28;20598;-71
2023/07/17 05:31:33;;;;;;;1.67;1.57;;;20.50;99.90;;;;;;4974880;28;20171;-73
2023/07/17 05:33:59;;;;;;;2.73;2.37;;;20.50;99.90;;;;;;4973922;28;20176;-71
2023/07/17 05:36:25;;;;;;;1.70;1.57;;;20.40;99.90;;;;;;4974706;28;20646;-73
2023/07/17 05:38:50;;;;;;;1.83;1.73;;;20.40;99.90;;;;;;4974826;28;20255;-76
2023/07/17 05:41:16;;;;;;;2.20;1.60;;;20.40;99.90;;;;;;4974742;28;20204;-74
2023/07/17 05:43:41;;;;;;;3.30;1.57;;;20.50;99.90;;;;;;4973576;28;20189;-72
2023/07/17 05:46:07;;;;;;;1.67;1.57;;;20.50;99.90;;;;;;4974676;28;20582;-70
2023/07/17 05:48:33;;;;;;;2.60;2.13;;;20.60;99.90;;;;;;4957043;28;20183;-74
2023/07/17 05:50:58;;;;;;;1.87;1.40;;;20.70;99.90;;;;;;4974448;28;20227;-72
2023/07/17 05:53:24;;;;;;;2.30;1.77;;;20.80;99.90;;;;;;4973795;28;20177;-69
2023/07/17 05:55:50;;;;;;;1.70;1.60;;;20.80;99.90;;;;;;4974504;28;20547;-71
2023/07/17 05:58:15;;;;;;;2.93;1.77;;;21.00;99.90;;;;;;4974348;28;20207;-71
2023/07/17 06:00:41;;;;;;;1.70;1.33;;;21.10;99.90;;;;;;4974735;28;21083;-65
2023/07/17 06:03:06;;;;;;;1.53;1.43;;;21.10;99.90;;;;;;4973661;28;20579;-66
2023/07/17 06:05:37;;;;;;;1.43;1.33;;;21.30;99.90;;;;;;4949682;28;20204;-70
2023/07/17 06:08:04;;;;;;;1.53;1.43;;;21.50;99.90;;;;;;4973679;28;20263;-67
2023/07/17 06:10:30;;;;;;;1.50;1.40;;;21.80;99.90;;;;;;4973881;28;20422;-66
2023/07/17 06:12:56;;;;;;;2.53;1.40;;;22.00;99.90;;;;;;4971278;28;20422;-68
2023/07/17 06:15:21;;;;;;;0.90;0.90;;;22.30;99.90;;;;;;4966284;28;20448;-67
2023/07/17 06:17:47;;;;;;;1.50;1.20;;;22.50;99.90;;;;;;4974557;28;20175;-67
2023/07/17 06:20:12;;;;;;;1.77;1.67;;;22.70;99.90;;;;;;4974100;28;20641;-67
2023/07/17 06:22:38;;;;;;;1.77;1.67;;;22.80;99.90;;;;;;4956717;28;20259;-65
2023/07/17 06:25:05;;;;;;;1.13;1.13;;;22.90;99.90;;;;;;4973737;28;20188;-66
2023/07/17 06:27:30;;;;;;;1.50;1.30;;;23.00;99.90;;;;;;4956882;28;20189;-66
2023/07/17 06:29:56;;;;;;;1.53;1.43;;;23.00;99.90;;;;;;4973667;28;20952;-67
2023/07/17 06:32:22;;;;;;;1.67;1.57;;;22.90;99.90;;;;;;4973932;28;20528;-67
2023/07/17 06:34:48;;;;;;;1.97;1.73;;;22.80;99.90;;;;;;4956450;28;20527;-67
2023/07/17 06:37:14;;;;;;;3.53;2.23;;;22.80;99.90;;;;;;4974129;28;20417;-66
2023/07/17 06:39:39;;;;;;;1.40;1.30;;;22.90;99.90;;;;;;4973903;28;20182;-67
2023/07/17 06:42:05;;;;;;;1.67;1.53;;;22.90;99.90;;;;;;4973838;28;20263;-67
2023/07/17 06:44:31;;;;;;;2.30;1.40;;;23.00;99.90;;;;;;4973773;28;20195;-67
2023/07/17 06:46:56;;;;;;;2.13;1.97;;;23.10;99.90;;;;;;4973996;28;20902;-67
2023/07/17 06:49:22;;;;;;;1.33;1.23;;;23.20;99.90;;;;;;4974033;28;20211;-67
2023/07/17 06:51:48;;;;;;;1.23;1.13;;;23.40;99.90;;;;;;4973824;28;20582;-67
2023/07/17 06:54:13;;;;;;;2.43;1.93;;;23.50;99.90;;;;;;4973739;28;20174;-67
2023/07/17 06:56:39;;;;;;;2.77;2.57;;;23.70;99.90;;;;;;4976723;28;20219;-68
2023/07/17 06:59:04;;;;;;;2.70;2.50;;;23.70;99.90;;;;;;4977748;28;20275;-67
2023/07/17 07:01:30;;;;;;;1.70;1.60;;;23.80;99.90;;;;;;4977374;28;20227;-67
2023/07/17 07:03:55;;;;;;;2.50;1.63;;;24.20;99.90;;;;;;4977187;28;20171;-67
2023/07/17 07:06:21;;;;;;;1.73;1.30;;;24.50;99.90;;;;;;4977132;28;20208;-67
2023/07/17 07:08:47;;;;;;;1.90;1.47;;;24.60;99.60;;;;;;4977804;28;20180;-67
2023/07/17 07:11:13;;;;;;;3.13;2.23;;;24.80;99.40;;;;;;4976756;28;20183;-67
2023/07/17 07:13:42;;;;;;;1.30;1.20;;;25.10;98.50;;;;;;4958968;28;20195;-67
2023/07/17 07:16:08;;;;;;;1.60;1.50;;;25.40;97.30;;;;;;4977154;28;20198;-67
2023/07/17 07:18:33;;;;;;;1.40;1.30;;;25.60;97.90;;;;;;4977172;28;20382;-67
2023/07/17 07:20:59;;;;;;;2.80;1.30;;;25.70;97.80;;;;;;4977020;28;20412;-67
2023/07/17 07:23:25;;;;;;;2.13;1.70;;;25.90;95.80;;;;;;4976901;28;20173;-67
2023/07/17 07:25:50;;;;;;;1.43;1.33;;;26.00;94.40;;;;;;4959874;28;20196;-67
2023/07/17 07:28:16;;;;;;;1.83;1.60;;;26.00;95.00;;;;;;4977240;28;20662;-67
2023/07/17 07:30:41;;;;;;;1.50;1.40;;;26.20;95.10;;;;;;4976465;28;20193;-67
2023/07/17 07:33:07;;;;;;;1.90;1.60;;;26.40;95.50;;;;;;4977031;28;20167;-67
2023/07/17 07:35:33;;;;;;;2.63;2.43;;;26.90;93.70;;;;;;4976617;28;20191;-68
2023/07/17 07:37:58;;;;;;;1.60;1.40;;;27.50;90.50;;;;;;4977011;28;20182;-67
2023/07/17 07:40:25;;;;;;;2.00;1.80;;;28.10;90.40;;;;;;4976474;28;20256;-71
2023/07/17 07:42:51;;;;;;;2.40;2.10;;;28.90;87.30;;;;;;4959949;28;20176;-68
2023/07/17 07:45:17;;;;;;;1.60;1.50;;;29.80;85.80;;;;;;4976256;28;20523;-66
2023/07/17 07:47:43;;;;;;;1.90;1.80;;;30.80;79.80;;;;;;4976705;28;20259;-67
2023/07/17 07:50:10;;;;;;;2.50;2.10;;;31.70;77.40;;;;;;4976382;28;20447;-67
2023/07/17 07:52:36;;;;;;;2.23;2.00;;;32.30;68.80;;;;;;4976266;28;20809;-67
2023/07/17 07:55:01;;;;;;;2.73;2.53;;;33.00;70.40;;;;;;4975802;28;20443;-66
2023/07/17 07:57:30;;;;;;;3.00;2.40;;;33.90;66.70;;;;;;4976611;28;20183;-66
2023/07/17 07:59:55;;;;;;;2.50;2.30;;;34.60;66.50;;;;;;4976445;28;20168;-67
2023/07/17 08:02:21;;;;;;;4.27;2.57;;;35.50;61.80;;;;;;4976654;28;20427;-67
2023/07/17 08:04:46;;;;;;;3.27;3.07;;;36.10;58.00;;;;;;4976048;28;20203;-67
2023/07/17 08:07:12;;;;;;;2.60;2.27;;;36.70;56.30;;;;;;4976305;28;20184;-67
2023/07/17 08:09:37;;;;;;;2.77;2.57;;;37.20;56.00;;;;;;4976395;28;20232;-67
2023/07/17 08:12:04;;;;;;;2.97;2.37;;;37.70;56.60;;;;;;4975975;28;20195;-67
2023/07/17 08:14:30;;;;;;;2.30;2.20;;;38.40;56.30;;;;;;4958389;28;20275;-67
2023/07/17 08:16:55;;;;;;;2.37;2.23;;;38.90;55.30;;;;;;4976212;28;20917;-67
2023/07/17 08:19:21;;;;;;;2.70;2.50;;;39.30;53.00;;;;;;4976206;28;20222;-67
2023/07/17 08:21:47;;;;;;;2.67;2.47;;;39.40;51.40;;;;;;4975826;28;20290;-67
2023/07/17 08:24:12;;;;;;;2.53;2.43;;;39.30;49.90;;;;;;4975681;28;20184;-67
2023/07/17 08:26:38;;;;;;;2.50;2.40;;;39.20;49.40;;;;;;4975990;28;20168;-67
2023/07/17 08:29:05;;;;;;;2.30;2.20;;;39.30;48.70;;;;;;4976106;28;20179;-67
2023/07/17 08:31:32;;;;;;;2.83;2.63;;;39.10;47.60;;;;;;4975972;28;20429;-67
2023/07/17 08:33:58;;;;;;;2.90;2.70;;;38.80;48.40;;;;;;4974995;28;20454;-67
2023/07/17 08:36:24;;;;;;;5.07;2.40;;;38.70;46.70;;;;;;4975416;28;20452;-68
2023/07/17 08:38:49;;;;;;;4.10;2.40;;;38.10;48.20;;;;;;4975860;28;20857;-68
2023/07/17 08:41:15;;;;;;;2.50;2.40;;;37.80;48.70;;;;;;4975924;28;20179;-68
2023/07/17 08:43:41;;;;;;;2.13;2.03;;;38.00;48.80;;;;;;4975488;28;20175;-68
2023/07/17 08:46:08;;;;;;;2.83;2.33;;;38.30;47.50;;;;;;4975153;28;20216;-69
2023/07/17 08:48:34;;;;;;;2.33;2.20;;;38.50;47.40;;;;;;4975755;28;20408;-68
2023/07/17 08:51:02;;;;;;;2.67;2.47;;;38.80;47.10;;;;;;4958336;28;20762;-68
2023/07/17 08:53:28;;;;;;;2.60;2.40;;;38.70;47.90;;;;;;4957930;28;20524;-68
2023/07/17 08:55:56;;;;;;;2.47;2.27;;;39.10;47.80;;;;;;4975379;28;20486;-70
2023/07/17 08:58:23;;;;;;;2.60;2.40;;;39.70;46.60;;;;;;4975072;28;20173;-69
2023/07/17 09:00:50;;;;;;;2.00;1.90;;;39.30;44.70;;;;;;4975537;28;20455;-68
2023/07/17 09:03:17;;;;;;;2.90;2.70;;;39.00;45.20;;;;;;4975184;28;20400;-69
2023/07/17 09:05:43;;;;;;;2.53;2.33;;;38.50;44.80;;;;;;4957773;28;20803;-68
2023/07/17 09:08:13;;;;;;;2.60;2.40;;;37.70;45.10;;;;;;4975421;28;20414;-67
2023/07/17 09:10:39;;;;;;;2.83;2.63;;;36.80;46.30;;;;;;4975375;28;20191;-67
2023/07/17 09:13:05;;;;;;;2.53;2.10;;;36.70;46.70;;;;;;4974679;28;20435;-69
2023/07/17 09:15:32;;;;;;;2.40;2.20;;;36.70;47.10;;;;;;4974419;28;20440;-67
2023/07/17 09:17:58;;;;;;;2.83;2.63;;;36.60;47.50;;;;;;4957247;28;20774;-66
2023/07/17 09:20:30;;;;;;;1.63;1.53;;;36.70;47.20;;;;;;4975241;28;20971;-67
2023/07/17 09:23:01;;;;;;;3.33;2.97;;;36.40;46.80;;;;;;4975167;28;20404;-67
2023/07/17 09:25:28;;;;;;;2.73;2.50;;;35.70;46.40;;;;;;4974331;28;20440;-68
2023/07/17 09:27:53;;;;;;;2.07;1.87;;;35.00;47.10;;;;;;4974968;28;20434;-66
2023/07/17 09:30:24;;;;;;;2.20;2.00;;;34.10;47.40;;;;;;4975049;28;20439;-66
2023/07/17 09:32:51;;;;;;;1.70;1.60;;;33.30;48.30;;;;;;4974564;28;20242;-67
2023/07/17 09:35:23;;;;;;;2.00;1.80;;;32.70;49.20;;;;;;4974618;28;20434;-67
2023/07/17 09:37:49;;;;;;;2.30;2.10;;;32.30;50.30;;;;;;4974937;28;20404;-66
2023/07/17 09:40:19;;;;;;;2.37;2.17;;;31.70;50.70;;;;;;4974774;28;20458;-67
2023/07/17 09:42:51;;;;;;;2.30;2.10;;;31.20;51.50;;;;;;4974764;28;20397;-67
2023/07/17 09:45:20;;;;;;;1.90;1.80;;;30.70;51.50;;;;;;4974062;28;20439;-65
2023/07/17 09:47:49;;;;;;;3.80;2.30;;;30.30;54.00;;;;;;4957273;28;20415;-66
2023/07/17 09:50:19;;;;;;;2.33;2.00;;;30.40;53.50;;;;;;4957358;28;20927;-66
2023/07/17 09:52:45;;;;;;;2.40;2.20;;;30.40;54.60;;;;;;4974577;28;20422;-66
2023/07/17 09:55:11;;;;;;;2.20;2.00;;;30.80;54.70;;;;;;4973918;28;20434;-67
2023/07/17 09:57:38;;;;;;;3.13;2.17;;;31.20;53.90;;;;;;4974494;28;20642;-67
2023/07/17 10:00:13;;;;;;;2.70;2.30;;;31.30;54.80;;;;;;4974347;28;20967;-66
2023/07/17 10:03:06;;;;;;;2.40;2.20;;;31.40;55.10;;;;;;4974736;28;20402;-67
2023/07/17 10:05:33;;;;;;;3.70;2.23;;;31.90;53.60;;;;;;4956610;28;20436;-68
2023/07/17 10:08:00;;;;;;;2.37;2.03;;;32.00;52.00;;;;;;4974801;28;20399;-67
2023/07/17 10:10:27;;;;;;;2.30;2.10;;;31.80;52.40;;;;;;4974651;28;20455;-67
2023/07/17 10:12:55;;;;;;;2.23;2.13;;;31.60;52.10;;;;;;4974203;28;20479;-68
2023/07/17 10:15:23;;;;;;;2.40;2.20;;;31.80;52.60;;;;;;4973725;28;20223;-69
2023/07/17 10:17:59;;;;;;;2.37;2.17;;;31.90;52.20;;;;;;4957071;28;20420;-66
2023/07/17 10:20:29;;;;;;;4.00;1.93;;;32.30;52.10;;;;;;4974735;28;20463;-68
2023/07/17 10:22:54;;;;;;;2.57;2.37;;;32.50;51.70;;;;;;4974571;28;20502;-66
2023/07/17 10:25:20;;;;;;;2.50;2.30;;;32.70;52.20;;;;;;4973867;28;20518;-66
2023/07/17 10:28:00;;;;;;;2.33;2.13;;;32.90;52.10;;;;;;4973801;28;20534;-67
2023/07/17 10:30:35;;;;;;;2.80;2.20;;;32.90;51.80;;;;;;4975140;28;20183;-67
2023/07/17 10:33:19;;;;;;;2.30;2.10;;;32.90;52.20;;;;;;4978029;28;20426;-69
2023/07/17 10:35:49;;;;;;;2.33;2.23;;;33.00;53.30;;;;;;4977992;28;20413;-68
2023/07/17 10:38:38;;;;;;;2.50;2.30;;;33.50;52.40;;;;;;4978297;28;20770;-67
2023/07/17 10:41:05;;;;;;;2.37;2.17;;;34.20;50.70;;;;;;4967619;28;20544;-67
2023/07/17 10:43:34;;;;;;;2.47;2.37;;;34.70;50.60;;;;;;4977331;28;20453;-67
2023/07/17 10:46:07;;;;;;;2.93;2.27;;;35.30;51.70;;;;;;4977907;28;20814;-68
2023/07/17 10:48:34;;;;;;;2.77;2.57;;;35.80;50.10;;;;;;4977971;28;20412;-66
2023/07/17 10:51:00;;;;;;;2.60;2.40;;;36.10;48.60;;;;;;4977755;28;20400;-67
2023/07/17 10:53:25;;;;;;;1.93;1.80;;;36.30;48.20;;;;;;4977350;28;20744;-66
2023/07/17 10:55:51;;;;;;;2.40;2.30;;;36.30;48.10;;;;;;4977245;28;20204;-67
2023/07/17 10:58:20;;;;;;;3.13;2.83;;;36.20;50.20;;;;;;4977566;28;20227;-67
2023/07/17 11:00:47;;;;;;;2.70;2.50;;;36.30;47.40;;;;;;4960184;28;20239;-67
2023/07/17 11:03:14;;;;;;;3.00;2.70;;;36.50;48.00;;;;;;4977704;28;20466;-67
2023/07/17 11:05:41;;;;;;;2.77;2.57;;;36.70;47.90;;;;;;4977132;28;20546;-67
2023/07/17 11:08:08;;;;;;;2.70;2.50;;;36.80;48.50;;;;;;4977793;28;20411;-68
2023/07/17 11:10:41;;;;;;;3.13;2.57;;;37.00;47.60;;;;;;4977056;28;20886;-67
2023/07/17 11:13:07;;;;;;;2.90;2.70;;;37.00;47.40;;;;;;4977513;28;20490;-66
2023/07/17 11:15:34;;;;;;;2.60;2.40;;;36.70;47.10;;;;;;4976728;28;20959;-68
2023/07/17 11:18:03;;;;;;;2.77;2.57;;;36.50;47.10;;;;;;4959795;28;20423;-68
2023/07/17 11:20:29;;;;;;;3.17;2.57;;;36.00;47.90;;;;;;4977168;28;20542;-68
2023/07/17 11:22:56;;;;;;;2.43;2.33;;;35.20;49.00;;;;;;4977142;28;20547;-67
2023/07/17 11:25:27;;;;;;;2.30;2.13;;;34.20;49.30;;;;;;4976307;28;20459;-68
2023/07/17 11:27:54;;;;;;;2.00;1.90;;;33.60;50.30;;;;;;4977295;28;20492;-68
2023/07/17 11:30:25;;;;;;;2.43;2.23;;;32.80;50.20;;;;;;4977145;28;20404;-68
2023/07/17 11:33:01;;;;;;;3.50;3.07;;;32.20;52.90;;;;;;4977037;28;20412;-68
2023/07/17 11:35:48;;;;;;;2.30;2.07;;;31.90;52.40;;;;;;4976627;28;20530;-68
2023/07/17 11:38:15;;;;;;;3.20;2.90;;;31.50;53.00;;;;;;4976501;28;20405;-67
2023/07/17 11:40:54;;;;;;;2.43;2.23;;;31.20;54.30;;;;;;4976178;28;20429;-68
2023/07/17 11:43:33;;;;;;;2.80;2.60;;;30.90;53.90;;;;;;4976676;28;20408;-67
2023/07/17 11:46:03;;;;;;;9.20;3.27;;;30.70;54.40;;;;;;4959159;28;20969;-67
2023/07/17 11:48:31;;;;;;;3.50;2.33;;;30.40;54.30;;;;;;4976686;28;20761;-67
2023/07/17 11:50:58;;;;;;;3.10;2.40;;;30.10;55.90;;;;;;4959351;28;20936;-68
2023/07/17 11:53:27;;;;;;;2.10;1.90;;;30.00;56.60;;;;;;4976101;28;20904;-66
2023/07/17 11:55:53;;;;;;;2.73;2.53;;;29.90;56.40;;;;;;4976606;28;20432;-65
2023/07/17 11:58:24;;;;;;;3.00;2.80;;;29.90;58.00;;;;;;4954854;28;20417;-68
2023/07/17 12:00:52;;;;;;;2.10;2.00;;;30.00;57.50;;;;;;4979694;28;20678;-66
2023/07/17 12:03:21;;;;;;;2.77;2.40;;;29.90;57.10;;;;;;4961861;28;20405;-69
2023/07/17 12:05:47;;;;;;;1.73;1.63;;;30.00;57.50;;;;;;4975916;28;20429;-66
2023/07/17 12:08:13;;;;;;;3.00;2.43;;;30.00;57.20;;;;;;4976228;28;20928;-65
2023/07/17 12:10:39;;;;;;;2.23;2.03;;;30.00;56.90;;;;;;4976388;28;20450;-66
2023/07/17 12:13:05;;;;;;;2.50;2.30;;;30.10;58.10;;;;;;4977284;28;20176;-64
2023/07/17 12:15:31;;;;;;;2.40;2.20;;;30.20;56.80;;;;;;4977166;28;20203;-66
2023/07/17 12:17:57;;;;;;;2.63;2.43;;;30.10;56.90;;;;;;4976098;28;20184;-65
2023/07/17 12:20:23;;;;;;;2.47;2.27;;;30.10;56.50;;;;;;4976233;28;20430;-66
2023/07/17 12:22:51;;;;;;;2.50;2.30;;;30.10;56.40;;;;;;4976324;28;20438;-65
2023/07/17 12:25:17;;;;;;;3.67;2.30;;;30.20;56.90;;;;;;4975634;28;20406;-65
2023/07/17 12:27:44;;;;;;;5.63;3.20;;;30.00;56.80;;;;;;4975923;28;20378;-68
2023/07/17 12:30:11;;;;;;;3.40;2.90;;;29.90;58.70;;;;;;4975204;28;20424;-65
2023/07/17 12:32:38;;;;;;;2.40;2.20;;;29.90;56.90;;;;;;4973365;28;20749;-64
2023/07/17 12:35:05;;;;;;;2.60;2.40;;;29.90;56.70;;;;;;4957884;28;20797;-65
2023/07/17 12:37:34;;;;;;;2.60;2.40;;;29.80;58.60;;;;;;4975595;28;20458;-63
2023/07/17 12:40:00;;;;;;;2.17;1.97;;;29.70;58.30;;;;;;4975835;28;20455;-64
2023/07/17 12:42:26;;;;;;;2.27;1.90;;;29.60;57.80;;;;;;4975735;28;20909;-65
2023/07/17 12:44:52;;;;;;;3.13;2.70;;;29.50;57.40;;;;;;4975179;28;20437;-65
2023/07/17 12:47:18;;;;;;;2.80;2.30;;;29.20;58.10;;;;;;4975724;28;20527;-66
2023/07/17 12:49:44;;;;;;;2.37;2.17;;;28.90;58.70;;;;;;4975251;28;20196;-65
2023/07/17 12:52:10;;;;;;;2.70;2.50;;;28.80;59.50;;;;;;4975248;28;20394;-66
2023/07/17 12:54:35;;;;;;;2.00;1.90;;;28.80;59.40;;;;;;4974012;28;20447;-67
2023/07/17 12:57:01;;;;;;;2.30;2.10;;;28.90;59.00;;;;;;4975467;28;20180;-63
2023/07/17 12:59:30;;;;;;;2.63;2.00;;;28.90;58.60;;;;;;4957293;28;20204;-63
2023/07/17 13:01:56;;;;;;;3.87;2.63;;;28.80;59.10;;;;;;4957873;28;20200;-66
2023/07/17 13:04:22;;;;;;;2.97;2.67;;;28.90;60.50;;;;;;4973909;28;20422;-65
2023/07/17 13:06:50;;;;;;;2.53;2.03;;;28.80;58.90;;;;;;4974949;28;20805;-64
2023/07/17 13:09:15;;;;;;;1.33;1.30;;;28.70;58.50;;;;;;4974975;28;20419;-64
2023/07/17 13:11:41;;;;;;;2.50;2.30;;;28.60;59.40;;;;;;4971853;28;20444;-65
2023/07/17 13:14:08;;;;;;;1.87;1.77;;;28.50;60.80;;;;;;4981146;28;20200;-64
2023/07/17 13:16:35;;;;;;;2.63;2.10;;;28.40;61.50;;;;;;4977351;28;20212;-63
2023/07/17 13:19:01;;;;;;;2.37;1.87;;;28.40;59.80;;;;;;4973767;28;20403;-64
2023/07/17 13:21:27;;;;;;;2.37;2.13;;;28.30;60.20;;;;;;4973400;28;20427;-64
2023/07/17 13:23:53;;;;;;;2.00;1.73;;;28.30;59.90;;;;;;4956771;28;20441;-64
2023/07/17 13:26:27;;;;;;;2.67;2.47;;;28.30;60.80;;;;;;4973717;28;20940;-64
2023/07/17 13:28:53;;;;;;;2.00;1.80;;;28.20;60.40;;;;;;4974267;28;20191;-64
2023/07/17 13:31:18;;;;;;;3.10;2.47;;;28.20;62.60;;;;;;4974175;28;20505;-65
2023/07/17 13:33:44;;;;;;;2.77;2.57;;;28.10;61.50;;;;;;4974121;28;20172;-63
2023/07/17 13:36:10;;;;;;;2.30;2.10;;;28.00;61.50;;;;;;4974520;28;20196;-64
2023/07/17 13:38:36;;;;;;;2.40;2.20;;;28.00;61.90;;;;;;4974356;28;20186;-63
2023/07/17 13:41:10;;;;;;;7.03;2.13;;;28.00;62.10;;;;;;4974267;28;20211;-64
2023/07/17 13:43:36;;;;;;;2.10;2.00;;;28.00;64.30;;;;;;4956828;28;20404;-64
2023/07/17 13:46:02;;;;;;;1.60;1.40;;;27.80;62.50;;;;;;4956513;28;20465;-66
2023/07/17 13:48:27;;;;;;;2.73;2.53;;;27.70;62.40;;;;;;4974024;28;20555;-63
2023/07/17 13:50:53;;;;;;;1.93;1.83;;;27.60;62.20;;;;;;4973831;28;20191;-63
2023/07/17 13:53:19;;;;;;;5.90;2.20;;;27.50;62.30;;;;;;4973704;28;20554;-68
2023/07/17 13:55:46;;;;;;;2.53;2.20;;;27.40;62.10;;;;;;4974393;28;20669;-64
2023/07/17 13:58:12;;;;;;;2.40;2.20;;;27.40;62.60;;;;;;4973871;28;20183;-64
2023/07/17 14:00:38;;;;;;;2.90;2.27;;;27.30;63.70;;;;;;4974228;28;20791;-64
2023/07/17 14:03:03;;;;;;;3.60;2.23;;;27.20;63.10;;;;;;4956367;28;20400;-63
2023/07/17 14:05:29;;;;;;;1.97;1.70;;;27.10;64.00;;;;;;4975318;28;21041;-64
2023/07/17 14:07:54;;;;;;;2.37;2.17;;;27.00;65.00;;;;;;4977964;28;20185;-63
2023/07/17 14:10:22;;;;;;;1.97;1.77;;;27.00;64.80;;;;;;4978506;28;20216;-63
2023/07/17 14:12:47;;;;;;;1.70;1.60;;;27.20;65.20;;;;;;4978540;28;20192;-64
2023/07/17 14:15:14;;;;;;;1.57;1.47;;;27.20;64.00;;;;;;4977229;28;20425;-65
2023/07/17 14:17:39;;;;;;;1.90;1.60;;;27.30;63.50;;;;;;4977505;28;20186;-63
2023/07/17 14:20:06;;;;;;;2.53;2.00;;;27.40;62.80;;;;;;4977979;28;20426;-63
2023/07/17 14:22:32;;;;;;;5.70;1.63;;;27.30;64.20;;;;;;4977441;28;20644;-63
2023/07/17 14:24:58;;;;;;;1.87;1.67;;;27.20;64.90;;;;;;4959373;28;20421;-63
2023/07/17 14:27:23;;;;;;;2.90;1.60;;;27.20;64.60;;;;;;4971225;28;20178;-64
2023/07/17 14:29:49;;;;;;;1.80;1.70;;;27.20;66.30;;;;;;4977568;28;20637;-64
2023/07/17 14:32:15;;;;;;;2.30;2.10;;;27.30;67.80;;;;;;4960197;28;20443;-63
2023/07/17 14:34:41;;;;;;;2.67;1.90;;;27.30;66.30;;;;;;4977554;28;20205;-64
2023/07/17 14:37:06;;;;;;;1.77;1.57;;;27.30;66.20;;;;;;4977762;28;20274;-63
2023/07/17 14:39:32;;;;;;;2.00;1.47;;;27.30;65.70;;;;;;4959948;28;20210;-64
2023/07/17 14:41:58;;;;;;;2.30;1.97;;;27.30;65.30;;;;;;4976348;28;20174;-62
2023/07/17 14:44:24;;;;;;;8.40;2.63;;;27.30;65.60;;;;;;4977155;28;20212;-64
2023/07/17 14:46:51;;;;;;;1.70;1.60;;;27.30;65.40;;;;;;4973335;28;20242;-63
2023/07/17 14:49:21;;;;;;;1.80;1.70;;;27.20;64.50;;;;;;4977495;28;20237;-63
2023/07/17 14:51:46;;;;;;;2.00;1.90;;;27.20;64.90;;;;;;4976832;28;20491;-64
2023/07/17 14:54:12;;;;;;;1.57;1.47;;;27.10;66.10;;;;;;4975577;28;20504;-65
2023/07/17 14:56:37;;;;;;;2.60;2.00;;;27.10;67.80;;;;;;4976737;28;20646;-68
2023/07/17 14:59:03;;;;;;;2.33;2.13;;;27.00;66.90;;;;;;4976993;28;20179;-68
2023/07/17 15:01:29;;;;;;;2.00;1.90;;;27.10;66.20;;;;;;4976449;28;20241;-70
2023/07/17 15:03:54;;;;;;;3.27;2.53;;;27.10;65.00;;;;;;4975369;28;20195;-69
2023/07/17 15:06:20;;;;;;;2.93;2.20;;;27.20;66.20;;;;;;4976507;28;20224;-66
2023/07/17 15:08:45;;;;;;;2.37;1.97;;;27.30;65.30;;;;;;4977322;28;20182;-67
2023/07/17 15:11:11;;;;;;;2.57;2.10;;;27.50;65.80;;;;;;4958897;28;20207;-68
2023/07/17 15:13:37;;;;;;;3.23;2.00;;;27.60;66.80;;;;;;4975376;28;20179;-72
2023/07/17 15:16:03;;;;;;;2.50;1.80;;;27.80;65.50;;;;;;4975225;28;20458;-71
2023/07/17 15:18:29;;;;;;;2.30;2.00;;;27.90;63.70;;;;;;4959049;28;20298;-68
2023/07/17 15:20:55;;;;;;;2.40;2.03;;;28.00;65.10;;;;;;4976701;28;20459;-67
2023/07/17 15:23:20;;;;;;;2.37;1.80;;;28.10;65.00;;;;;;4973259;28;20185;-70
2023/07/17 15:25:46;;;;;;;1.97;1.73;;;28.10;64.70;;;;;;4974301;28;20291;-68
2023/07/17 15:28:11;;;;;;;2.20;2.00;;;28.20;65.30;;;;;;4976252;28;20182;-68
2023/07/17 15:30:37;;;;;;;2.53;1.87;;;28.20;65.10;;;;;;4976508;28;20204;-68
2023/07/17 15:33:03;;;;;;;2.03;1.93;;;28.20;65.80;;;;;;4974864;28;20218;-68
2023/07/17 15:35:31;;;;;;;2.60;2.27;;;28.10;64.20;;;;;;4974517;28;20215;-70
2023/07/17 15:37:57;;;;;;;2.30;2.20;;;28.10;63.50;;;;;;4975684;28;20183;-68
2023/07/17 15:40:22;;;;;;;2.43;2.20;;;28.10;64.80;;;;;;4975577;28;20475;-67
2023/07/17 15:42:49;;;;;;;3.10;2.50;;;28.10;63.90;;;;;;4965365;28;20180;-67
2023/07/17 15:45:23;;;;;;;2.57;2.37;;;28.20;65.20;;;;;;4967182;28;20215;-65
2023/07/17 15:47:49;;;;;;;2.53;2.30;;;28.10;63.60;;;;;;4968893;28;20410;-68
2023/07/17 15:50:16;;;;;;;1.97;1.87;;;28.10;65.30;;;;;;4947825;28;20385;-67
2023/07/17 15:52:41;;;;;;;4.93;2.23;;;28.10;65.10;;;;;;4949581;28;20429;-66
2023/07/17 15:55:10;;;;;;;3.77;2.83;;;28.00;62.50;;;;;;4950814;28;20934;-67
2023/07/17 15:57:36;;;;;;;2.17;2.00;;;27.90;64.30;;;;;;4955153;28;20350;-68
2023/07/17 16:00:03;;;;;;;2.70;2.27;;;27.80;66.00;;;;;;4966784;28;20527;-67
2023/07/17 16:02:30;;;;;;;2.33;2.00;;;27.80;65.30;;;;;;4973740;28;20231;-65
2023/07/17 16:04:59;;;;;;;2.40;2.20;;;27.80;64.50;;;;;;4974829;28;20420;-62
2023/07/17 16:07:25;;;;;;;3.73;2.50;;;27.70;66.00;;;;;;4975450;28;20413;-65
2023/07/17 16:09:50;;;;;;;1.77;1.63;;;27.40;65.10;;;;;;4958439;28;20716;-65
2023/07/17 16:12:16;;;;;;;3.23;2.30;;;27.20;65.40;;;;;;4976015;28;20227;-65
2023/07/17 16:14:44;;;;;;;4.77;3.57;;;27.00;65.50;;;;;;4975383;28;20192;-65
2023/07/17 16:17:13;;;;;;;4.13;1.90;;;26.80;66.10;;;;;;4975015;28;20178;-67
2023/07/17 16:19:44;;;;;;;1.93;1.83;;;26.70;67.20;;;;;;4971060;28;20463;-65
2023/07/17 16:22:13;;;;;;;2.17;1.97;;;26.60;68.10;;;;;;4975561;28;20410;-69
2023/07/17 16:24:38;;;;;;;2.07;1.87;;;26.50;68.90;;;;;;4975176;28;20463;-70
2023/07/17 16:27:06;;;;;;;1.80;1.70;;;26.40;68.20;;;;;;4975339;28;20439;-69
2023/07/17 16:29:32;;;;;;;3.10;2.57;;;26.40;68.50;;;;;;4957505;28;20180;-66
2023/07/17 16:31:57;;;;;;;3.70;2.10;;;26.40;68.80;;;;;;4975065;28;20499;-69
2023/07/17 16:34:23;;;;;;;1.87;1.63;;;26.50;68.00;;;;;;4974668;28;20200;-67
2023/07/17 16:36:49;;;;;;;2.80;1.60;;;26.50;68.40;;;;;;4974864;28;20219;-68
2023/07/17 16:39:17;;;;;;;4.63;1.93;;;26.40;67.50;;;;;;4956737;28;20173;-67
2023/07/17 16:41:43;;;;;;;2.27;2.13;;;26.40;68.20;;;;;;4957115;28;20191;-68
2023/07/17 16:44:09;;;;;;;2.10;1.93;;;26.40;68.20;;;;;;4957545;28;20394;-66
2023/07/17 16:46:34;;;;;;;2.83;1.80;;;26.30;68.20;;;;;;4974940;28;20176;-67
2023/07/17 16:49:00;;;;;;;2.90;1.57;;;26.30;67.80;;;;;;4975248;28;20175;-67
2023/07/17 16:51:26;;;;;;;2.20;1.77;;;26.20;68.50;;;;;;4974287;28;20649;-67